Sopchoppy, Florida
Current Conditions -  °F | °C
As of 10:53 AM on Friday 24 Oct 2014 (Local Time) from KTLH Reporting Station
Few Clouds Few Clouds  
Wind Chill: 69°   Ceiling: Unl
Heat Index: 69°   Visibility: 10mi
Dew Point: 47°   Wind: 0mph
Humidity: 45%   Direction: NA
Pressure: 30.07"   Gusts: NA
Location:  30.06°N, 84.49°W
Report Text: KTLH 241453Z 00000KT 10SM FEW250 21/08 A3007 RMK AO2 SLP181 T02060083 51009 $
Loading
Personal Weather Stations






























Interactive Weather Map New forecast layout! Learn more

10-Day Weather Forecast

Advertisements
Track Severe Weather on mobile